Time;durP1;ratioP1;P1;durP2;ratioP2;P2;SDS_P1;SDS_P2;PMS_P1;PMS_P2;Temp;Humidity;BMP_temperature;BMP_pressure;BME280_temperature;BME280_humidity;BME280_pressure;Samples;Min_cycle;Max_cycle;Signal;HPM_P1;HPM_P2
2023/08/01 09:01:17;;;;;;;5.80;3.00;;;;;;;25.47;73.17;97779.61;102508;1290;600853;-79
2023/08/01 09:03:44;;;;;;;7.20;3.90;;;;;;;25.37;72.88;97779.39;104981;1264;59254;-80
2023/08/01 09:06:19;;;;;;;6.00;3.30;;;;;;;25.36;73.53;97777.60;104960;1269;59241;-81
2023/08/01 09:08:51;;;;;;;3.50;3.10;;;;;;;25.42;71.95;97773.48;104961;1270;64022;-79
2023/08/01 09:11:18;;;;;;;3.40;2.90;;;;;;;25.48;72.06;97773.05;105054;1269;60697;-77
2023/08/01 09:13:45;;;;;;;5.90;3.40;;;;;;;25.72;72.61;97774.49;104835;1264;167648;-78
2023/08/01 09:16:14;;;;;;;5.10;3.40;;;;;;;25.99;72.56;97768.39;105123;1264;59138;-79
2023/08/01 09:18:51;;;;;;;4.90;3.40;;;;;;;26.21;71.64;97765.38;105993;1251;59282;-79
2023/08/01 09:21:21;;;;;;;4.40;3.10;;;;;;;26.40;70.60;97770.45;105972;1252;64033;-80
2023/08/01 09:23:48;;;;;;;3.80;3.10;;;;;;;26.59;69.43;97771.65;105501;1260;61366;-79
2023/08/01 09:26:16;;;;;;;5.10;3.10;;;;;;;26.69;68.99;97767.54;105904;1251;65418;-79
2023/08/01 09:28:43;;;;;;;4.90;3.40;;;;;;;26.81;68.91;97766.58;106000;1251;59655;-79
2023/08/01 09:31:11;;;;;;;5.40;3.10;;;;;;;26.97;68.89;97765.07;106014;1251;59727;-81
2023/08/01 09:33:41;;;;;;;7.00;3.30;;;;;;;27.03;68.27;97763.41;106054;1253;64764;-79
2023/08/01 09:36:09;;;;;;;3.90;2.80;;;;;;;26.98;67.13;97763.24;105993;1251;60965;-78
2023/08/01 09:38:37;;;;;;;8.80;3.10;;;;;;;26.86;67.05;97763.41;106021;1254;65447;-80
2023/08/01 09:41:04;;;;;;;5.50;3.40;;;;;;;26.85;66.67;97760.53;106051;1254;59764;-79
2023/08/01 09:43:35;;;;;;;4.30;2.70;;;;;;;26.87;66.62;97754.73;106034;1251;59739;-78
2023/08/01 09:46:03;;;;;;;8.10;2.90;;;;;;;26.88;66.69;97750.98;106081;1254;65749;-80
2023/08/01 09:48:30;;;;;;;3.40;2.70;;;;;;;26.89;67.07;97745.61;105762;1260;60007;-80
2023/08/01 09:51:09;;;;;;;4.10;3.00;;;;;;;26.84;67.17;97744.16;106081;1251;64610;-78
2023/08/01 09:53:50;;;;;;;5.10;3.00;;;;;;;26.64;66.24;97742.81;105742;1258;60058;-79
2023/08/01 09:56:20;;;;;;;6.20;3.20;;;;;;;26.34;66.84;97742.65;106187;1251;59504;-80
2023/08/01 09:58:48;;;;;;;10.30;4.20;;;;;;;26.17;67.67;97743.46;106100;1254;65978;-79
2023/08/01 10:01:19;;;;;;;7.00;3.30;;;;;;;25.96;67.28;97744.44;105946;1253;60891;-79
2023/08/01 10:03:48;;;;;;;4.00;3.00;;;;;;;25.67;67.87;97736.38;105939;1256;65240;-76
2023/08/01 10:06:19;;;;;;;8.40;3.80;;;;;;;25.40;68.65;97739.70;106951;1251;59773;-78
2023/08/01 10:08:47;;;;;;;3.40;2.70;;;;;;;25.11;69.61;97742.71;106669;1251;59674;-78
2023/08/01 10:11:16;;;;;;;4.80;3.00;;;;;;;24.87;70.98;97747.68;106174;1251;64982;-78
2023/08/01 10:13:44;;;;;;;4.90;3.50;;;;;;;24.69;72.47;97747.45;105790;1256;60515;-78
2023/08/01 10:16:15;;;;;;;3.90;2.70;;;;;;;24.57;73.64;97745.54;105853;1258;65573;-79
2023/08/01 10:18:42;;;;;;;4.80;2.70;;;;;;;24.42;74.76;97749.50;105701;1251;59552;-79
2023/08/01 10:21:15;;;;;;;4.50;2.90;;;;;;;24.25;76.02;97750.25;105856;1256;59613;-80
2023/08/01 10:23:44;;;;;;;3.90;3.10;;;;;;;24.10;77.27;97748.79;105840;1256;65686;-79
2023/08/01 10:26:12;;;;;;;4.20;2.90;;;;;;;24.02;78.66;97751.61;105831;1256;60618;-79
2023/08/01 10:28:49;;;;;;;4.10;3.30;;;;;;;23.91;80.12;97754.98;105824;1256;65630;-79
2023/08/01 10:31:18;;;;;;;4.50;2.90;;;;;;;23.82;81.98;97755.54;105745;1251;59774;-78
2023/08/01 10:33:49;;;;;;;4.70;2.90;;;;;;;23.78;83.66;97759.17;105743;1251;60080;-79
2023/08/01 10:36:22;;;;;;;3.80;2.90;;;;;;;23.67;84.76;97761.41;105824;1251;63669;-78
2023/08/01 10:38:56;;;;;;;3.30;3.00;;;;;;;23.56;86.45;97756.43;105903;1256;61611;-79
2023/08/01 10:41:31;;;;;;;3.80;2.70;;;;;;;23.49;88.42;97759.77;105825;1251;65671;-79
2023/08/01 10:44:14;;;;;;;5.20;3.30;;;;;;;23.41;90.77;97760.23;105595;1255;59647;-79
2023/08/01 10:46:49;;;;;;;4.80;3.20;;;;;;;23.28;92.50;97759.35;105801;1251;59624;-78
2023/08/01 10:49:17;;;;;;;3.40;3.10;;;;;;;23.13;93.79;97756.52;105874;1251;64739;-78
2023/08/01 10:51:45;;;;;;;5.10;3.10;;;;;;;22.97;95.26;97756.83;105801;1251;60549;-78
2023/08/01 10:54:34;;;;;;;3.30;3.00;;;;;;;22.80;96.88;97762.35;105946;1251;64633;-77
2023/08/01 10:57:01;;;;;;;4.20;2.60;;;;;;;22.64;98.54;97758.86;105867;1251;59568;-78
2023/08/01 10:59:29;;;;;;;4.50;2.90;;;;;;;22.56;99.84;97765.63;105802;1254;59616;-77
2023/08/01 11:01:58;;;;;;;3.50;3.20;;;;;;;22.49;100.00;97762.34;105869;1250;65035;-77
2023/08/01 11:04:25;;;;;;;;;;;;;;;22.47;100.00;97761.54;105529;1262;60753;-77
2023/08/01 11:06:58;;;;;;;2.90;2.70;;;;;;;22.43;100.00;97758.28;105702;1250;59778;-77
2023/08/01 11:09:26;;;;;;;3.40;2.90;;;;;;;22.40;100.00;97759.66;105860;1250;59617;-78
2023/08/01 11:11:58;;;;;;;3.20;2.70;;;;;;;22.36;100.00;97758.16;105892;1251;59618;-77
2023/08/01 11:14:27;;;;;;;2.90;2.60;;;;;;;22.33;100.00;97753.30;105893;1250;64998;-77
2023/08/01 11:16:55;;;;;;;3.70;3.20;;;;;;;22.24;100.00;97754.35;105906;1250;61717;-76
2023/08/01 11:19:27;;;;;;;5.00;3.30;;;;;;;22.18;100.00;97755.50;105612;1256;64561;-77
2023/08/01 11:21:58;;;;;;;3.40;2.90;;;;;;;22.10;100.00;97753.88;105929;1251;59633;-77
2023/08/01 11:24:26;;;;;;;3.80;3.10;;;;;;;22.03;100.00;97750.96;105938;1250;59750;-77
2023/08/01 11:26:54;;;;;;;4.30;3.20;;;;;;;22.00;100.00;97752.12;105881;1250;65201;-78
2023/08/01 11:29:20;;;;;;;4.20;3.50;;;;;;;21.94;100.00;97756.57;105954;1250;60668;-78
2023/08/01 11:31:53;;;;;;;4.00;3.60;;;;;;;21.85;100.00;97753.25;105826;1254;65650;-78
2023/08/01 11:34:21;;;;;;;4.30;3.40;;;;;;;21.78;100.00;97752.73;105870;1254;59751;-78
2023/08/01 11:36:48;;;;;;;3.50;3.20;;;;;;;21.71;100.00;97748.59;105865;1250;59514;-77
2023/08/01 11:39:16;;;;;;;4.50;3.40;;;;;;;21.66;100.00;97745.78;105906;1250;64943;-78
2023/08/01 11:41:43;;;;;;;4.30;3.70;;;;;;;21.63;100.00;97749.41;105885;1251;60540;-77
2023/08/01 11:44:11;;;;;;;4.20;3.00;;;;;;;21.55;100.00;97757.38;105882;1254;64503;-77
2023/08/01 11:46:39;;;;;;;3.40;3.10;;;;;;;21.45;100.00;97756.30;106019;1251;59573;-77
2023/08/01 11:49:06;;;;;;;4.30;3.80;;;;;;;21.39;100.00;97764.77;105880;1254;59552;-78
2023/08/01 11:51:41;;;;;;;4.00;3.30;;;;;;;21.31;100.00;97766.27;105910;1254;64532;-77
2023/08/01 11:54:10;;;;;;;4.60;3.20;;;;;;;21.28;100.00;97763.66;105868;1250;60734;-77
2023/08/01 11:56:38;;;;;;;3.80;3.30;;;;;;;21.23;100.00;97766.67;105894;1250;65859;-77
2023/08/01 11:59:15;;;;;;;3.90;3.60;;;;;;;21.18;100.00;97764.86;105918;1254;59740;-76
2023/08/01 12:01:46;;;;;;;4.20;3.20;;;;;;;21.15;100.00;97767.73;105875;1254;59647;-77
2023/08/01 12:04:27;;;;;;;4.70;3.30;;;;;;;21.13;100.00;97760.74;105935;1251;64942;-78
2023/08/01 12:06:53;;;;;;;3.80;3.50;;;;;;;21.11;100.00;97752.11;105964;1253;61313;-79
2023/08/01 12:09:20;;;;;;;5.00;3.20;;;;;;;21.10;100.00;97752.61;105585;1255;64552;-78
2023/08/01 12:11:58;;;;;;;5.10;3.70;;;;;;;21.12;100.00;97748.44;105580;1258;59719;-77
2023/08/01 12:14:25;;;;;;;3.90;3.40;;;;;;;21.16;100.00;97744.55;105904;1251;59702;-77
2023/08/01 12:16:51;;;;;;;4.10;3.40;;;;;;;21.23;100.00;97737.95;105880;1250;64680;-78
2023/08/01 12:19:20;;;;;;;3.80;3.40;;;;;;;21.33;100.00;97729.73;109358;1250;60490;-77
2023/08/01 12:21:47;;;;;;;4.90;3.40;;;;;;;21.44;100.00;97728.60;109634;1250;65016;-77
2023/08/01 12:24:14;;;;;;;3.40;3.10;;;;;;;21.55;100.00;97724.54;109329;1255;57462;-78
2023/08/01 12:26:40;;;;;;;3.40;2.80;;;;;;;21.60;100.00;97733.75;109601;1250;57470;-78
2023/08/01 12:29:08;;;;;;;4.00;3.70;;;;;;;21.62;100.00;97738.96;109418;1250;65185;-78
2023/08/01 12:31:34;;;;;;;3.10;2.80;;;;;;;21.63;100.00;97744.27;109642;1250;60974;-77
2023/08/01 12:34:01;;;;;;;3.90;2.90;;;;;;;21.66;100.00;97743.65;109369;1250;64979;-78
2023/08/01 12:36:27;;;;;;;3.50;3.20;;;;;;;21.68;100.00;97737.35;109604;1250;57368;-78
2023/08/01 12:38:54;;;;;;;3.90;3.10;;;;;;;21.75;100.00;97741.92;109653;1250;57836;-76
2023/08/01 12:41:21;;;;;;;3.50;3.20;;;;;;;21.84;100.00;97741.58;109654;1250;65486;-77
2023/08/01 12:43:48;;;;;;;4.30;3.00;;;;;;;21.86;100.00;97740.61;109671;1250;61065;-78
2023/08/01 12:46:14;;;;;;;4.00;3.40;;;;;;;21.83;100.00;97743.54;109651;1250;64720;-78
2023/08/01 12:48:41;;;;;;;3.80;3.00;;;;;;;21.78;100.00;97744.55;109453;1250;57442;-76
2023/08/01 12:51:08;;;;;;;4.30;3.50;;;;;;;21.74;100.00;97742.34;109652;1250;57369;-78
2023/08/01 12:53:34;;;;;;;6.90;4.50;;;;;;;21.73;100.00;97737.83;109591;1250;65494;-78
2023/08/01 12:56:01;;;;;;;5.20;4.10;;;;;;;21.71;100.00;97736.61;109638;1250;61067;-78
2023/08/01 12:58:27;;;;;;;5.90;4.30;;;;;;;21.73;100.00;97738.33;109603;1250;64813;-78
2023/08/01 13:00:55;;;;;;;5.10;4.60;;;;;;;21.74;100.00;97734.16;109352;1250;57447;-78
2023/08/01 13:03:22;;;;;;;5.00;4.20;;;;;;;21.77;100.00;97728.86;109604;1250;57242;-78
2023/08/01 13:05:49;;;;;;;4.40;4.00;;;;;;;21.80;100.00;97729.80;109636;1250;65489;-78
2023/08/01 13:08:15;;;;;;;3.40;3.10;;;;;;;21.85;100.00;97726.31;109668;1250;60087;-78
2023/08/01 13:10:42;;;;;;;3.60;3.20;;;;;;;21.82;100.00;97722.41;109645;1250;64864;-78
2023/08/01 13:13:08;;;;;;;2.90;2.70;;;;;;;21.81;100.00;97725.58;109648;1250;59018;-78
2023/08/01 13:15:35;;;;;;;4.60;2.80;;;;;;;21.77;100.00;97728.30;109601;1250;58083;-78
2023/08/01 13:18:02;;;;;;;2.80;2.60;;;;;;;21.72;100.00;97728.65;109581;1250;66162;-78
2023/08/01 13:20:29;;;;;;;3.20;2.80;;;;;;;21.68;100.00;97728.89;109643;1250;61043;-78
2023/08/01 13:22:55;;;;;;;3.30;3.00;;;;;;;21.64;100.00;97728.67;109640;1250;65000;-77
2023/08/01 13:25:22;;;;;;;2.90;2.60;;;;;;;21.59;100.00;97728.61;109352;1250;58295;-77
2023/08/01 13:27:48;;;;;;;4.20;2.90;;;;;;;21.53;100.00;97724.39;109561;1250;58334;-78
2023/08/01 13:30:17;;;;;;;4.70;2.70;;;;;;;21.51;100.00;97727.80;109680;1250;66170;-77
2023/08/01 13:32:45;;;;;;;2.60;2.40;;;;;;;21.50;100.00;97721.34;109603;1250;61004;-78
2023/08/01 13:35:13;;;;;;;3.60;2.40;;;;;;;21.48;100.00;97723.62;109540;1250;65266;-78
2023/08/01 13:37:40;;;;;;;2.70;2.30;;;;;;;21.45;100.00;97724.70;109546;1250;58122;-77
2023/08/01 13:40:07;;;;;;;2.60;2.40;;;;;;;21.42;100.00;97720.42;109645;1250;58226;-78
2023/08/01 13:42:34;;;;;;;4.70;2.70;;;;;;;21.37;100.00;97717.64;109583;1251;65342;-78
2023/08/01 13:45:01;;;;;;;2.80;2.40;;;;;;;21.30;100.00;97716.18;109395;1250;59725;-78
2023/08/01 13:47:28;;;;;;;2.60;2.40;;;;;;;21.23;100.00;97710.77;109633;1250;64007;-78
2023/08/01 13:49:54;;;;;;;2.50;2.30;;;;;;;21.19;100.00;97705.95;109614;1250;58219;-77
2023/08/01 13:52:21;;;;;;;2.40;2.20;;;;;;;21.11;100.00;97704.59;109635;1250;58224;-78
2023/08/01 13:54:47;;;;;;;2.60;2.40;;;;;;;21.04;100.00;97702.85;109623;1250;65349;-77
2023/08/01 13:57:14;;;;;;;2.70;2.50;;;;;;;20.99;100.00;97700.04;109406;1250;60052;-77
2023/08/01 13:59:41;;;;;;;2.70;2.50;;;;;;;20.86;100.00;97700.30;109612;1250;65077;-77
2023/08/01 14:02:07;;;;;;;3.30;2.30;;;;;;;20.74;100.00;97695.94;109608;1250;58166;-78
2023/08/01 14:04:34;;;;;;;3.10;2.40;;;;;;;20.68;100.00;97691.66;109627;1250;58989;-77
2023/08/01 14:07:02;;;;;;;2.90;2.30;;;;;;;20.62;100.00;97689.36;109624;1250;65400;-77
2023/08/01 14:09:32;;;;;;;4.20;2.50;;;;;;;20.55;100.00;97690.94;109164;1250;60113;-77
2023/08/01 14:11:58;;;;;;;3.30;2.40;;;;;;;20.49;100.00;97689.38;109610;1250;65497;-76
2023/08/01 14:14:25;;;;;;;2.60;2.20;;;;;;;20.48;100.00;97686.98;109601;1250;58197;-77
2023/08/01 14:16:51;;;;;;;3.30;2.10;;;;;;;20.45;100.00;97683.14;109632;1250;58338;-77
2023/08/01 14:19:18;;;;;;;2.60;2.20;;;;;;;20.42;100.00;97685.96;109671;1250;66354;-78
2023/08/01 14:21:45;;;;;;;2.40;2.20;;;;;;;20.44;100.00;97686.60;109661;1250;60968;-76
2023/08/01 14:24:11;;;;;;;2.50;2.30;;;;;;;20.51;100.00;97688.40;109610;1250;65896;-78
2023/08/01 14:26:39;;;;;;;3.90;2.40;;;;;;;20.58;100.00;97683.31;109611;1250;58158;-77
2023/08/01 14:29:05;;;;;;;2.40;2.20;;;;;;;20.63;100.00;97679.50;109670;1250;58062;-77
2023/08/01 14:31:32;;;;;;;2.50;2.30;;;;;;;20.63;100.00;97678.21;109634;1250;65963;-78
2023/08/01 14:33:58;;;;;;;2.10;1.90;;;;;;;20.60;100.00;97676.73;109697;1250;59714;-77
2023/08/01 14:36:25;;;;;;;3.70;2.20;;;;;;;20.58;100.00;97673.02;109649;1250;63994;-78
2023/08/01 14:38:54;;;;;;;2.20;1.90;;;;;;;20.58;100.00;97677.55;109395;1250;58383;-77
2023/08/01 14:41:21;;;;;;;3.00;1.90;;;;;;;20.54;100.00;97681.64;109695;1250;58233;-77
2023/08/01 14:43:47;;;;;;;2.90;2.10;;;;;;;20.50;100.00;97679.61;109651;1250;66360;-77
2023/08/01 14:46:14;;;;;;;2.30;2.00;;;;;;;20.48;100.00;97678.50;109646;1250;60993;-78
2023/08/01 14:48:40;;;;;;;2.80;2.40;;;;;;;20.42;100.00;97680.50;109665;1250;65187;-78
2023/08/01 14:51:07;;;;;;;2.40;2.10;;;;;;;20.39;100.00;97682.15;109350;1250;58160;-78
2023/08/01 14:53:34;;;;;;;2.40;2.20;;;;;;;20.36;100.00;97678.17;109696;1250;58297;-77
2023/08/01 14:56:02;;;;;;;2.70;2.50;;;;;;;20.32;100.00;97678.51;109681;1250;66262;-78
2023/08/01 14:58:29;;;;;;;2.50;2.20;;;;;;;20.28;100.00;97676.91;109632;1250;60967;-78
2023/08/01 15:00:57;;;;;;;2.80;2.60;;;;;;;20.23;100.00;97679.57;109663;1250;65013;-78
2023/08/01 15:03:23;;;;;;;4.00;2.20;;;;;;;20.17;100.00;97683.69;109629;1250;58170;-78
2023/08/01 15:05:50;;;;;;;2.60;2.40;;;;;;;20.08;100.00;97688.08;109446;1250;58284;-78
2023/08/01 15:08:16;;;;;;;4.40;2.50;;;;;;;20.00;100.00;97687.95;109680;1250;66403;-78
2023/08/01 15:10:43;;;;;;;3.70;2.50;;;;;;;19.95;100.00;97688.84;109687;1250;60089;-78
2023/08/01 15:13:09;;;;;;;4.10;2.40;;;;;;;19.90;100.00;97684.98;109677;1250;65130;-77
2023/08/01 15:15:37;;;;;;;3.00;2.70;;;;;;;19.84;100.00;97689.69;109636;1250;58211;-77
2023/08/01 15:18:03;;;;;;;2.30;2.10;;;;;;;19.81;100.00;97690.23;109637;1251;58178;-77
2023/08/01 15:20:35;;;;;;;3.40;2.10;;;;;;;19.80;100.00;97689.19;109644;1251;65322;-78
2023/08/01 15:23:02;;;;;;;2.50;2.30;;;;;;;19.80;100.00;97687.42;109629;1250;60027;-77
2023/08/01 15:25:29;;;;;;;2.20;2.00;;;;;;;19.79;100.00;97683.48;109582;1251;64837;-77
2023/08/01 15:27:55;;;;;;;2.40;2.20;;;;;;;19.79;100.00;97683.15;109582;1251;58220;-77
2023/08/01 15:30:22;;;;;;;2.50;2.10;;;;;;;19.77;100.00;97683.24;109648;1251;58061;-77
2023/08/01 15:32:48;;;;;;;2.60;2.10;;;;;;;19.75;100.00;97681.48;109624;1251;65151;-76
2023/08/01 15:35:15;;;;;;;3.30;2.30;;;;;;;19.69;100.00;97684.36;109653;1251;60974;-78
2023/08/01 15:37:42;;;;;;;1.70;1.60;;;;;;;19.65;100.00;97680.52;109611;1251;64764;-76
2023/08/01 15:40:08;;;;;;;2.20;1.90;;;;;;;19.63;100.00;97679.59;109539;1251;58156;-77
2023/08/01 15:42:35;;;;;;;2.20;2.00;;;;;;;19.59;100.00;97676.27;109652;1251;58240;-76
2023/08/01 15:45:02;;;;;;;2.70;1.80;;;;;;;19.55;100.00;97671.86;109595;1252;66500;-77
2023/08/01 15:47:29;;;;;;;3.20;2.00;;;;;;;19.57;100.00;97671.34;109595;1251;61297;-77
2023/08/01 15:49:55;;;;;;;3.40;2.10;;;;;;;19.54;100.00;97672.69;109578;1251;72540;-78
2023/08/01 15:52:22;;;;;;;2.10;1.90;;;;;;;19.50;100.00;97672.48;109597;1251;58131;-77
2023/08/01 15:54:48;;;;;;;2.10;1.80;;;;;;;19.46;100.00;97672.85;109604;1251;58172;-76
2023/08/01 15:57:15;;;;;;;2.10;1.90;;;;;;;19.42;100.00;97667.57;109646;1251;65134;-77
2023/08/01 15:59:42;;;;;;;2.00;1.80;;;;;;;19.38;100.00;97668.36;109626;1251;61416;-77
2023/08/01 16:02:09;;;;;;;2.50;2.00;;;;;;;19.35;100.00;97672.04;109618;1251;62472;-77
2023/08/01 16:04:36;;;;;;;2.30;2.10;;;;;;;19.35;100.00;97675.72;109539;1251;58250;-78
2023/08/01 16:07:03;;;;;;;2.80;2.10;;;;;;;19.33;100.00;97681.14;109638;1251;58916;-78
2023/08/01 16:09:29;;;;;;;2.40;1.80;;;;;;;19.31;100.00;97683.33;109622;1251;65222;-77
2023/08/01 16:11:56;;;;;;;3.00;2.10;;;;;;;19.26;100.00;97689.14;109614;1253;59854;-78
2023/08/01 16:14:22;;;;;;;2.20;1.60;;;;;;;19.19;100.00;97691.52;109578;1251;65112;-77
2023/08/01 16:16:49;;;;;;;2.50;2.30;;;;;;;19.13;100.00;97693.13;109578;1251;58261;-79
2023/08/01 16:19:16;;;;;;;3.70;2.20;;;;;;;19.10;100.00;97697.70;109652;1251;58180;-77
2023/08/01 16:21:42;;;;;;;3.20;2.50;;;;;;;19.06;100.00;97702.67;109636;1251;66207;-78
2023/08/01 16:24:09;;;;;;;2.60;2.40;;;;;;;19.06;100.00;97703.47;109566;1251;60259;-77
2023/08/01 16:26:36;;;;;;;2.10;1.90;;;;;;;19.09;100.00;97707.00;109621;1251;65098;-79
2023/08/01 16:29:02;;;;;;;4.10;2.50;;;;;;;19.06;100.00;97709.08;109560;1251;58200;-78
2023/08/01 16:31:29;;;;;;;3.00;2.40;;;;;;;19.07;100.00;97714.20;109590;1251;58154;-78
2023/08/01 16:33:56;;;;;;;3.20;2.80;;;;;;;19.10;100.00;97718.14;109529;1251;64993;-78
2023/08/01 16:36:22;;;;;;;2.80;2.50;;;;;;;19.13;100.00;97715.89;109661;1251;60401;-77
2023/08/01 16:38:49;;;;;;;2.80;2.50;;;;;;;19.15;100.00;97717.33;109583;1251;64859;-77
2023/08/01 16:41:21;;;;;;;3.70;2.40;;;;;;;19.17;100.00;97718.35;109609;1251;58125;-77
2023/08/01 16:43:48;;;;;;;3.50;2.50;;;;;;;19.18;100.00;97713.39;109626;1251;58206;-77
2023/08/01 16:46:15;;;;;;;4.30;3.50;;;;;;;19.20;100.00;97719.09;109673;1250;66283;-77
2023/08/01 16:48:42;;;;;;;3.60;3.30;;;;;;;19.21;100.00;97720.73;109586;1251;61072;-77
2023/08/01 16:51:09;;;;;;;3.40;2.80;;;;;;;19.21;100.00;97724.02;109589;1251;64719;-77
2023/08/01 16:53:37;;;;;;;3.70;3.20;;;;;;;19.21;100.00;97722.52;109605;1251;58140;-76
2023/08/01 16:56:03;;;;;;;5.50;3.70;;;;;;;19.20;100.00;97720.84;109603;1251;58567;-78
2023/08/01 16:58:30;;;;;;;4.30;3.70;;;;;;;19.18;100.00;97721.39;109648;1250;66515;-77
2023/08/01 17:00:57;;;;;;;4.20;3.80;;;;;;;19.15;100.00;97722.04;109686;1251;60692;-78
2023/08/01 17:03:23;;;;;;;5.20;4.20;;;;;;;19.12;100.00;97721.40;109499;1251;65080;-78
2023/08/01 17:05:51;;;;;;;4.40;3.80;;;;;;;19.07;100.00;97723.55;109636;1251;58145;-77
2023/08/01 17:08:17;;;;;;;4.50;4.00;;;;;;;19.05;100.00;97728.51;109597;1251;58039;-77
2023/08/01 17:10:44;;;;;;;5.00;4.50;;;;;;;19.02;100.00;97731.30;109616;1251;66148;-78
2023/08/01 17:13:10;;;;;;;4.70;3.90;;;;;;;18.99;100.00;97730.46;109703;1250;61436;-77
2023/08/01 17:15:37;;;;;;;6.00;4.30;;;;;;;18.95;100.00;97730.79;109638;1251;64070;-77
2023/08/01 17:18:04;;;;;;;4.80;3.60;;;;;;;18.92;100.00;97731.19;109636;1251;57984;-77
2023/08/01 17:20:36;;;;;;;4.40;3.90;;;;;;;18.89;100.00;97725.46;109736;1251;58114;-76
2023/08/01 17:23:02;;;;;;;4.60;3.50;;;;;;;18.86;100.00;97729.04;109711;1251;66413;-79
2023/08/01 17:25:29;;;;;;;3.60;3.30;;;;;;;18.82;100.00;97735.02;109804;1253;60323;-77
2023/08/01 17:27:56;;;;;;;4.80;3.30;;;;;;;18.79;100.00;97730.53;109891;1251;64016;-77
2023/08/01 17:30:23;;;;;;;5.40;3.70;;;;;;;18.78;100.00;97725.48;109904;1251;58160;-77
2023/08/01 17:32:50;;;;;;;5.10;3.70;;;;;;;18.76;100.00;97717.81;109897;1250;57437;-77
2023/08/01 17:35:16;;;;;;;4.70;3.50;;;;;;;18.72;100.00;97714.45;109863;1250;66138;-79
2023/08/01 17:37:44;;;;;;;3.60;3.10;;;;;;;18.68;100.00;97710.27;109806;1251;60066;-77
2023/08/01 17:40:11;;;;;;;5.70;3.30;;;;;;;18.65;100.00;97709.02;109858;1251;64093;-77
2023/08/01 17:42:37;;;;;;;3.30;2.90;;;;;;;18.61;100.00;97703.40;109609;1251;58175;-77
2023/08/01 17:45:05;;;;;;;3.60;2.90;;;;;;;18.57;100.00;97700.61;109393;1253;58330;-78
2023/08/01 17:47:32;;;;;;;3.00;2.70;;;;;;;18.54;100.00;97697.00;109136;1254;65083;-77
2023/08/01 17:49:58;;;;;;;3.70;2.60;;;;;;;18.52;100.00;97694.06;109467;1253;61139;-77
2023/08/01 17:52:25;;;;;;;4.40;2.90;;;;;;;18.48;100.00;97690.02;109437;1253;64169;-77
2023/08/01 17:54:51;;;;;;;4.10;2.80;;;;;;;18.45;100.00;97691.30;109434;1253;58159;-78
2023/08/01 17:57:18;;;;;;;3.20;2.90;;;;;;;18.42;100.00;97695.77;109412;1254;58241;-76
2023/08/01 17:59:45;;;;;;;5.00;2.50;;;;;;;18.38;100.00;97701.13;109407;1254;65128;-79
2023/08/01 18:02:12;;;;;;;3.30;2.70;;;;;;;18.37;100.00;97695.70;109444;1253;61672;-77
2023/08/01 18:04:43;;;;;;;4.50;3.40;;;;;;;18.35;100.00;97693.96;109406;1253;62820;-77
2023/08/01 18:07:10;;;;;;;4.10;3.70;;;;;;;18.33;100.00;97696.67;109298;1254;58176;-78
2023/08/01 18:09:37;;;;;;;5.50;3.40;;;;;;;18.29;100.00;97700.53;109471;1253;58223;-78
2023/08/01 18:12:05;;;;;;;4.60;3.90;;;;;;;18.25;100.00;97700.16;109083;1254;66437;-78
2023/08/01 18:14:35;;;;;;;4.80;3.20;;;;;;;18.21;100.00;97703.38;109437;1253;59842;-77
2023/08/01 18:17:02;;;;;;;8.40;3.70;;;;;;;18.16;100.00;97704.23;109526;1251;64326;-78
2023/08/01 18:19:28;;;;;;;4.00;3.70;;;;;;;18.12;100.00;97701.70;109583;1254;58190;-76
2023/08/01 18:21:55;;;;;;;4.20;3.70;;;;;;;18.08;100.00;97701.84;109653;1251;58118;-76
2023/08/01 18:24:21;;;;;;;4.10;3.60;;;;;;;18.05;100.00;97698.80;109620;1251;65305;-78
2023/08/01 18:26:48;;;;;;;4.40;3.30;;;;;;;18.02;100.00;97707.63;109453;1251;58808;-77
2023/08/01 18:29:15;;;;;;;4.00;3.30;;;;;;;17.98;100.00;97711.91;109586;1251;65310;-77
2023/08/01 18:31:41;;;;;;;5.70;3.80;;;;;;;17.91;100.00;97713.54;109578;1251;58553;-77
2023/08/01 18:34:08;;;;;;;4.80;3.20;;;;;;;17.85;100.00;97712.85;109614;1251;58260;-76
2023/08/01 18:36:35;;;;;;;4.10;3.70;;;;;;;17.83;100.00;97713.27;109598;1251;65291;-77
2023/08/01 18:39:02;;;;;;;4.80;4.30;;;;;;;17.80;100.00;97716.83;109648;1251;61172;-77
2023/08/01 18:41:28;;;;;;;4.90;4.50;;;;;;;17.79;100.00;97719.08;109573;1253;64236;-78
2023/08/01 18:43:55;;;;;;;4.60;3.80;;;;;;;17.78;100.00;97721.29;109545;1250;58106;-76
2023/08/01 18:46:22;;;;;;;4.90;3.80;;;;;;;17.77;100.00;97722.09;109642;1251;58160;-77
2023/08/01 18:48:49;;;;;;;4.80;3.90;;;;;;;17.78;100.00;97717.88;109639;1252;66352;-77
2023/08/01 18:51:18;;;;;;;4.60;4.20;;;;;;;17.77;100.00;97714.92;109564;1251;58516;-75
2023/08/01 18:53:45;;;;;;;4.50;4.10;;;;;;;17.77;100.00;97716.40;109540;1251;63667;-77
2023/08/01 18:56:18;;;;;;;5.30;3.80;;;;;;;17.77;100.00;97719.23;109397;1251;58252;-77
2023/08/01 18:58:45;;;;;;;7.00;4.00;;;;;;;17.76;100.00;97726.05;109621;1252;58313;-78
2023/08/01 19:01:15;;;;;;;3.90;3.60;;;;;;;17.72;100.00;97726.14;109698;1250;66403;-77
2023/08/01 19:03:42;;;;;;;5.20;4.70;;;;;;;17.67;100.00;97722.61;109631;1251;60227;-77
2023/08/01 19:06:09;;;;;;;4.90;4.40;;;;;;;17.65;100.00;97720.92;109583;1251;64021;-78
2023/08/01 19:08:37;;;;;;;5.50;4.50;;;;;;;17.63;100.00;97729.91;109539;1250;58149;-77
2023/08/01 19:11:03;;;;;;;5.10;4.10;;;;;;;17.60;100.00;97739.46;109591;1251;58222;-77
2023/08/01 19:13:30;;;;;;;4.90;4.20;;;;;;;17.57;100.00;97738.70;109620;1251;66292;-77
2023/08/01 19:15:58;;;;;;;4.90;4.40;;;;;;;17.54;100.00;97730.36;109612;1251;61124;-77
2023/08/01 19:18:27;;;;;;;4.60;4.10;;;;;;;17.53;100.00;97724.44;109560;1251;65037;-78
2023/08/01 19:20:54;;;;;;;6.50;5.90;;;;;;;17.55;100.00;97726.11;109610;1251;58164;-78
2023/08/01 19:23:21;;;;;;;6.40;5.90;;;;;;;17.59;100.00;97727.30;109625;1251;58101;-76
2023/08/01 19:25:47;;;;;;;7.50;6.80;;;;;;;17.62;100.00;97725.33;109538;1253;66197;-76
2023/08/01 19:28:14;;;;;;;7.50;6.80;;;;;;;17.63;100.00;97721.98;109600;1251;59834;-77
2023/08/01 19:30:40;;;;;;;7.20;6.60;;;;;;;17.61;100.00;97724.73;109589;1251;65048;-77
2023/08/01 19:33:07;;;;;;;6.20;5.70;;;;;;;17.59;100.00;97723.33;109413;1251;58236;-77
2023/08/01 19:35:41;;;;;;;5.90;5.30;;;;;;;17.59;100.00;97721.02;109594;1251;58260;-77
2023/08/01 19:38:08;;;;;;;7.40;6.40;;;;;;;17.60;100.00;97729.96;109600;1251;65147;-78
2023/08/01 19:40:41;;;;;;;6.30;5.70;;;;;;;17.57;100.00;97738.63;109598;1251;58734;-77
2023/08/01 19:43:09;;;;;;;6.50;5.80;;;;;;;17.52;100.00;97750.92;109572;1251;64088;-78
2023/08/01 19:45:36;;;;;;;6.20;5.50;;;;;;;17.47;100.00;97757.91;109540;1251;58297;-77
2023/08/01 19:48:03;;;;;;;6.90;5.20;;;;;;;17.45;100.00;97755.91;109626;1251;58226;-77
2023/08/01 19:50:30;;;;;;;6.60;6.00;;;;;;;17.46;100.00;97756.69;109628;1251;66186;-77
2023/08/01 19:52:57;;;;;;;6.90;5.70;;;;;;;17.47;100.00;97754.92;109607;1251;60930;-77
2023/08/01 19:55:23;;;;;;;5.80;5.30;;;;;;;17.47;100.00;97749.73;109389;1251;65368;-77
2023/08/01 19:57:50;;;;;;;5.60;5.10;;;;;;;17.44;100.00;97744.26;109581;1251;58141;-78
2023/08/01 20:00:17;;;;;;;7.60;5.90;;;;;;;17.42;100.00;97741.08;109654;1251;58265;-77
2023/08/01 20:02:46;;;;;;;6.50;5.80;;;;;;;17.41;100.00;97742.66;109569;1251;66246;-77
2023/08/01 20:05:13;;;;;;;8.80;7.90;;;;;;;17.41;100.00;97745.60;109592;1252;61048;-77
2023/08/01 20:07:40;;;;;;;13.30;12.10;;;;;;;17.38;100.00;97742.77;109587;1251;64895;-78
2023/08/01 20:10:07;;;;;;;11.40;10.30;;;;;;;17.36;100.00;97741.44;109615;1252;58282;-77
2023/08/01 20:12:34;;;;;;;10.70;8.70;;;;;;;17.34;100.00;97741.83;109621;1251;58034;-77
2023/08/01 20:15:01;;;;;;;10.40;9.30;;;;;;;17.33;100.00;97746.66;109661;1251;65432;-78
2023/08/01 20:17:28;;;;;;;10.80;9.40;;;;;;;17.31;100.00;97744.30;109656;1252;61238;-77
2023/08/01 20:19:55;;;;;;;8.10;7.40;;;;;;;17.31;100.00;97741.67;109321;1252;62752;-78
2023/08/01 20:22:21;;;;;;;9.90;9.00;;;;;;;17.31;100.00;97739.73;109601;1251;58128;-78